sensor_id;sensor_type;location;lat;lon;timestamp;pressure;altitude;pressure_sealevel;temperature;humidity
5988;BME280;3021;51.000;6.980;2023-07-13T00:01:46;68260.31;;;17.52;100.00
5988;BME280;3021;51.000;6.980;2023-07-13T00:04:14;68262.03;;;17.54;100.00
5988;BME280;3021;51.000;6.980;2023-07-13T00:06:40;68263.06;;;17.52;100.00
5988;BME280;3021;51.000;6.980;2023-07-13T00:09:13;68256.94;;;17.52;100.00
5988;BME280;3021;51.000;6.980;2023-07-13T00:11:39;68254.63;;;17.50;100.00
5988;BME280;3021;51.000;6.980;2023-07-13T00:14:05;68255.06;;;17.48;100.00
5988;BME280;3021;51.000;6.980;2023-07-13T00:16:30;68250.44;;;17.43;100.00
5988;BME280;3021;51.000;6.980;2023-07-13T00:18:55;68248.09;;;17.41;100.00
5988;BME280;3021;51.000;6.980;2023-07-13T00:21:21;68245.78;;;17.39;100.00
5988;BME280;3021;51.000;6.980;2023-07-13T00:23:46;68246.91;;;17.40;100.00
5988;BME280;3021;51.000;6.980;2023-07-13T00:26:12;68251.00;;;17.44;100.00
5988;BME280;3021;51.000;6.980;2023-07-13T00:28:38;68256.81;;;17.49;100.00
5988;BME280;3021;51.000;6.980;2023-07-13T00:31:04;68261.44;;;17.53;100.00
5988;BME280;3021;51.000;6.980;2023-07-13T00:33:29;68270.19;;;17.61;100.00
5988;BME280;3021;51.000;6.980;2023-07-13T00:35:55;68278.19;;;17.66;100.00
5988;BME280;3021;51.000;6.980;2023-07-13T00:38:22;68280.63;;;17.70;100.00
5988;BME280;3021;51.000;6.980;2023-07-13T00:40:48;68280.63;;;17.70;100.00
5988;BME280;3021;51.000;6.980;2023-07-13T00:43:16;68279.47;;;17.69;100.00
5988;BME280;3021;51.000;6.980;2023-07-13T00:48:07;68270.19;;;17.61;100.00
5988;BME280;3021;51.000;6.980;2023-07-13T00:50:32;68261.59;;;17.56;100.00
5988;BME280;3021;51.000;6.980;2023-07-13T00:52:58;68256.94;;;17.52;100.00
5988;BME280;3021;51.000;6.980;2023-07-13T00:55:23;68260.16;;;17.50;100.00
5988;BME280;3021;51.000;6.980;2023-07-13T00:57:49;68251.72;;;17.47;100.00
5988;BME280;3021;51.000;6.980;2023-07-13T01:00:15;68255.06;;;17.48;100.00
5988;BME280;3021;51.000;6.980;2023-07-13T01:02:45;68244.16;;;17.40;100.00
5988;BME280;3021;51.000;6.980;2023-07-13T01:05:13;68250.44;;;17.43;100.00
5988;BME280;3021;51.000;6.980;2023-07-13T01:07:40;68247.53;;;17.41;100.00
5988;BME280;3021;51.000;6.980;2023-07-13T01:10:07;68241.84;;;17.38;100.00
5988;BME280;3021;51.000;6.980;2023-07-13T01:12:33;68242.28;;;17.36;100.00
5988;BME280;3021;51.000;6.980;2023-07-13T01:15:00;68242.16;;;17.34;100.00
5988;BME280;3021;51.000;6.980;2023-07-13T01:17:27;68233.00;;;17.28;100.00
5988;BME280;3021;51.000;6.980;2023-07-13T01:19:53;68231.81;;;17.27;100.00
5988;BME280;3021;51.000;6.980;2023-07-13T01:22:19;68229.50;;;17.25;100.00
5988;BME280;3021;51.000;6.980;2023-07-13T01:24:47;68227.03;;;17.20;100.00
5988;BME280;3021;51.000;6.980;2023-07-13T01:27:15;68218.47;;;17.15;100.00
5988;BME280;3021;51.000;6.980;2023-07-13T01:29:42;68219.50;;;17.14;100.00
5988;BME280;3021;51.000;6.980;2023-07-13T01:32:14;68212.66;;;17.10;100.00
5988;BME280;3021;51.000;6.980;2023-07-13T01:34:40;68211.94;;;17.07;100.00
5988;BME280;3021;51.000;6.980;2023-07-13T01:37:10;68203.94;;;17.02;100.00
5988;BME280;3021;51.000;6.980;2023-07-13T01:39:36;68204.38;;;17.00;100.00
5988;BME280;3021;51.000;6.980;2023-07-13T01:42:02;68199.72;;;16.96;100.00
5988;BME280;3021;51.000;6.980;2023-07-13T01:44:28;68192.91;;;16.92;100.00
5988;BME280;3021;51.000;6.980;2023-07-13T01:46:53;68191.72;;;16.91;100.00
5988;BME280;3021;51.000;6.980;2023-07-13T01:49:18;68187.06;;;16.87;100.00
5988;BME280;3021;51.000;6.980;2023-07-13T01:51:44;68184.19;;;16.85;100.00
5988;BME280;3021;51.000;6.980;2023-07-13T01:54:09;68185.78;;;16.84;100.00
5988;BME280;3021;51.000;6.980;2023-07-13T01:56:34;68178.94;;;16.80;100.00
5988;BME280;3021;51.000;6.980;2023-07-13T01:59:00;68174.41;;;16.79;100.00
5988;BME280;3021;51.000;6.980;2023-07-13T02:01:25;68173.72;;;16.75;100.00
5988;BME280;3021;51.000;6.980;2023-07-13T02:03:50;68174.28;;;16.76;100.00
5988;BME280;3021;51.000;6.980;2023-07-13T02:06:16;68169.78;;;16.74;100.00
5988;BME280;3021;51.000;6.980;2023-07-13T02:08:42;68173.72;;;16.75;100.00
5988;BME280;3021;51.000;6.980;2023-07-13T02:11:07;68171.41;;;16.73;100.00
5988;BME280;3021;51.000;6.980;2023-07-13T02:13:33;68168.50;;;16.71;100.00
5988;BME280;3021;51.000;6.980;2023-07-13T02:15:58;68165.59;;;16.68;100.00
5988;BME280;3021;51.000;6.980;2023-07-13T02:18:23;68162.66;;;16.66;100.00
5988;BME280;3021;51.000;6.980;2023-07-13T02:20:49;68166.16;;;16.69;100.00
5988;BME280;3021;51.000;6.980;2023-07-13T02:23:15;68167.31;;;16.70;100.00
5988;BME280;3021;51.000;6.980;2023-07-13T02:25:40;68165.00;;;16.68;100.00
5988;BME280;3021;51.000;6.980;2023-07-13T02:28:06;68157.44;;;16.61;100.00
5988;BME280;3021;51.000;6.980;2023-07-13T02:30:31;68152.81;;;16.57;100.00
5988;BME280;3021;51.000;6.980;2023-07-13T02:32:57;68152.22;;;16.56;100.00
5988;BME280;3021;51.000;6.980;2023-07-13T02:35:23;68147.59;;;16.52;100.00
5988;BME280;3021;51.000;6.980;2023-07-13T02:37:48;68143.50;;;16.49;100.00
5988;BME280;3021;51.000;6.980;2023-07-13T02:40:14;68138.28;;;16.44;100.00
5988;BME280;3021;51.000;6.980;2023-07-13T02:42:40;68134.22;;;16.40;100.00
5988;BME280;3021;51.000;6.980;2023-07-13T02:45:06;68131.91;;;16.38;100.00
5988;BME280;3021;51.000;6.980;2023-07-13T02:47:33;68132.34;;;16.36;100.00
5988;BME280;3021;51.000;6.980;2023-07-13T02:49:58;68128.41;;;16.35;100.00
5988;BME280;3021;51.000;6.980;2023-07-13T02:52:24;68122.75;;;16.33;100.00
5988;BME280;3021;51.000;6.980;2023-07-13T02:54:49;68132.47;;;16.39;100.00
5988;BME280;3021;51.000;6.980;2023-07-13T02:57:15;68129.13;;;16.38;100.00
5988;BME280;3021;51.000;6.980;2023-07-13T02:59:40;68130.63;;;16.35;100.00
5988;BME280;3021;51.000;6.980;2023-07-13T03:02:05;68124.34;;;16.32;100.00
5988;BME280;3021;51.000;6.980;2023-07-13T03:04:31;68128.28;;;16.33;100.00
5988;BME280;3021;51.000;6.980;2023-07-13T03:06:56;68124.34;;;16.32;100.00
5988;BME280;3021;51.000;6.980;2023-07-13T03:09:24;68122.59;;;16.30;100.00
5988;BME280;3021;51.000;6.980;2023-07-13T03:11:49;68125.97;;;16.31;100.00
5988;BME280;3021;51.000;6.980;2023-07-13T03:14:14;68123.19;;;16.31;100.00
5988;BME280;3021;51.000;6.980;2023-07-13T03:16:40;68123.19;;;16.31;100.00
5988;BME280;3021;51.000;6.980;2023-07-13T03:19:05;68122.47;;;16.28;100.00
5988;BME280;3021;51.000;6.980;2023-07-13T03:21:30;68114.63;;;16.26;100.00
5988;BME280;3021;51.000;6.980;2023-07-13T03:23:56;68117.97;;;16.26;100.00
5988;BME280;3021;51.000;6.980;2023-07-13T03:26:21;68118.56;;;16.27;100.00
5988;BME280;3021;51.000;6.980;2023-07-13T03:28:47;68123.06;;;16.28;100.00
5988;BME280;3021;51.000;6.980;2023-07-13T03:31:16;68119.13;;;16.27;100.00
5988;BME280;3021;51.000;6.980;2023-07-13T03:33:42;68122.47;;;16.28;100.00
5988;BME280;3021;51.000;6.980;2023-07-13T03:36:12;68116.81;;;16.25;100.00
5988;BME280;3021;51.000;6.980;2023-07-13T03:38:38;68125.50;;;16.33;100.00
5988;BME280;3021;51.000;6.980;2023-07-13T03:41:03;68117.53;;;16.28;100.00
5988;BME280;3021;51.000;6.980;2023-07-13T03:43:29;68116.81;;;16.25;100.00
5988;BME280;3021;51.000;6.980;2023-07-13T03:45:54;68113.34;;;16.22;100.00
5988;BME280;3021;51.000;6.980;2023-07-13T03:48:20;68115.06;;;16.23;100.00
5988;BME280;3021;51.000;6.980;2023-07-13T03:50:47;68117.38;;;16.26;100.00
5988;BME280;3021;51.000;6.980;2023-07-13T03:53:12;68119.13;;;16.27;100.00
5988;BME280;3021;51.000;6.980;2023-07-13T03:55:37;68124.34;;;16.32;100.00
5988;BME280;3021;51.000;6.980;2023-07-13T04:00:54;68126.22;;;16.36;100.00
5988;BME280;3021;51.000;6.980;2023-07-13T04:03:20;68129.00;;;16.36;100.00
5988;BME280;3021;51.000;6.980;2023-07-13T04:05:45;68139.47;;;16.45;100.00
5988;BME280;3021;51.000;6.980;2023-07-13T04:08:11;68145.25;;;16.50;100.00
5988;BME280;3021;51.000;6.980;2023-07-13T04:10:36;68150.94;;;16.53;100.00
5988;BME280;3021;51.000;6.980;2023-07-13T04:13:02;68143.66;;;16.51;100.00
5988;BME280;3021;51.000;6.980;2023-07-13T04:15:30;68147.59;;;16.52;100.00
5988;BME280;3021;51.000;6.980;2023-07-13T04:17:56;68149.31;;;16.54;100.00
5988;BME280;3021;51.000;6.980;2023-07-13T04:20:21;68152.81;;;16.57;100.00
5988;BME280;3021;51.000;6.980;2023-07-13T04:22:47;68158.63;;;16.62;100.00
5988;BME280;3021;51.000;6.980;2023-07-13T04:25:12;68164.41;;;16.67;100.00
5988;BME280;3021;51.000;6.980;2023-07-13T04:27:37;68178.22;;;16.77;100.00
5988;BME280;3021;51.000;6.980;2023-07-13T04:30:05;68177.91;;;16.82;100.00
5988;BME280;3021;51.000;6.980;2023-07-13T04:32:30;68185.31;;;16.86;100.00
5988;BME280;3021;51.000;6.980;2023-07-13T04:34:57;68188.25;;;16.88;100.00
5988;BME280;3021;51.000;6.980;2023-07-13T04:37:27;68192.91;;;16.92;100.00
5988;BME280;3021;51.000;6.980;2023-07-13T04:39:53;68194.19;;;16.96;100.00
5988;BME280;3021;51.000;6.980;2023-07-13T04:42:19;68205.69;;;17.04;100.00
5988;BME280;3021;51.000;6.980;2023-07-13T04:44:48;68210.00;;;17.13;100.00
5988;BME280;3021;51.000;6.980;2023-07-13T04:47:14;68228.91;;;17.24;100.00
5988;BME280;3021;51.000;6.980;2023-07-13T04:49:39;68235.44;;;17.33;100.00
5988;BME280;3021;51.000;6.980;2023-07-13T04:52:05;68247.06;;;17.43;100.00
5988;BME280;3021;51.000;6.980;2023-07-13T04:54:33;68250.69;;;17.49;100.00
5988;BME280;3021;51.000;6.980;2023-07-13T04:56:58;68261.00;;;17.55;100.00
5988;BME280;3021;51.000;6.980;2023-07-13T04:59:23;68260.88;;;17.53;100.00
5988;BME280;3021;51.000;6.980;2023-07-13T05:01:49;68279.47;;;17.69;100.00
5988;BME280;3021;51.000;6.980;2023-07-13T05:04:14;68301.16;;;17.91;100.00
5988;BME280;3021;51.000;6.980;2023-07-13T05:06:39;68303.03;;;17.95;100.00
5988;BME280;3021;51.000;6.980;2023-07-13T05:09:05;68302.72;;;17.90;100.00
5988;BME280;3021;51.000;6.980;2023-07-13T05:11:31;68303.47;;;17.93;100.00
5988;BME280;3021;51.000;6.980;2023-07-13T05:13:56;68323.69;;;18.08;100.00
5988;BME280;3021;51.000;6.980;2023-07-13T05:16:22;68338.22;;;18.21;100.00
5988;BME280;3021;51.000;6.980;2023-07-13T05:18:47;68395.78;;;18.72;100.00
5988;BME280;3021;51.000;6.980;2023-07-13T05:21:12;68490.19;;;19.58;100.00
5988;BME280;3021;51.000;6.980;2023-07-13T05:23:38;68617.06;;;20.68;100.00
5988;BME280;3021;51.000;6.980;2023-07-13T05:26:05;68901.91;;;23.24;100.00
5988;BME280;3021;51.000;6.980;2023-07-13T05:28:31;69107.50;;;25.06;100.00
5988;BME280;3021;51.000;6.980;2023-07-13T05:30:57;69049.53;;;24.52;100.00
5988;BME280;3021;51.000;6.980;2023-07-13T05:33:24;68928.63;;;23.45;100.00
5988;BME280;3021;51.000;6.980;2023-07-13T05:35:49;68885.91;;;23.05;100.00
5988;BME280;3021;51.000;6.980;2023-07-13T05:38:15;68880.75;;;23.03;100.00
5988;BME280;3021;51.000;6.980;2023-07-13T05:40:45;68823.00;;;22.52;100.00
5988;BME280;3021;51.000;6.980;2023-07-13T05:43:11;68768.59;;;22.02;100.00
5988;BME280;3021;51.000;6.980;2023-07-13T05:45:36;68735.50;;;21.75;100.00
5988;BME280;3021;51.000;6.980;2023-07-13T05:48:02;68709.41;;;21.54;100.00
5988;BME280;3021;51.000;6.980;2023-07-13T05:50:27;68689.56;;;21.37;100.00
5988;BME280;3021;51.000;6.980;2023-07-13T05:52:53;68660.75;;;21.06;100.00
5988;BME280;3021;51.000;6.980;2023-07-13T05:55:19;68659.59;;;21.05;100.00
5988;BME280;3021;51.000;6.980;2023-07-13T05:57:45;68675.91;;;21.20;100.00
5988;BME280;3021;51.000;6.980;2023-07-13T06:00:11;68653.88;;;21.03;100.00
5988;BME280;3021;51.000;6.980;2023-07-13T06:02:36;68650.25;;;20.97;100.00
5988;BME280;3021;51.000;6.980;2023-07-13T06:05:01;68639.91;;;20.91;100.00
5988;BME280;3021;51.000;6.980;2023-07-13T06:07:27;68627.19;;;20.82;100.00
5988;BME280;3021;51.000;6.980;2023-07-13T06:09:52;68612.38;;;20.64;100.00
5988;BME280;3021;51.000;6.980;2023-07-13T06:12:18;68612.97;;;20.64;100.00
5988;BME280;3021;51.000;6.980;2023-07-13T06:14:43;68597.47;;;20.55;100.00
5988;BME280;3021;51.000;6.980;2023-07-13T06:17:09;68607.72;;;20.60;100.00
5988;BME280;3021;51.000;6.980;2023-07-13T06:19:34;68599.69;;;20.55;100.00
5988;BME280;3021;51.000;6.980;2023-07-13T06:21:59;68622.44;;;20.75;100.00
5988;BME280;3021;51.000;6.980;2023-07-13T06:24:25;68655.50;;;21.02;100.00
5988;BME280;3021;51.000;6.980;2023-07-13T06:26:51;68715.69;;;21.57;100.00
5988;BME280;3021;51.000;6.980;2023-07-13T06:29:16;68889.41;;;23.08;100.00
5988;BME280;3021;51.000;6.980;2023-07-13T06:31:42;69216.75;;;25.99;100.00
5988;BME280;3021;51.000;6.980;2023-07-13T06:34:07;69623.38;;;29.62;100.00
5988;BME280;3021;51.000;6.980;2023-07-13T06:36:32;69718.88;;;30.43;100.00
5988;BME280;3021;51.000;6.980;2023-07-13T06:38:58;69613.91;;;29.51;100.00
5988;BME280;3021;51.000;6.980;2023-07-13T06:41:23;69581.66;;;29.23;100.00
5988;BME280;3021;51.000;6.980;2023-07-13T06:43:51;69602.88;;;29.44;100.00
5988;BME280;3021;51.000;6.980;2023-07-13T06:46:17;69607.47;;;29.45;100.00
5988;BME280;3021;51.000;6.980;2023-07-13T06:48:42;69346.75;;;27.16;100.00
5988;BME280;3021;51.000;6.980;2023-07-13T06:51:08;69224.34;;;26.06;100.00
5988;BME280;3021;51.000;6.980;2023-07-13T06:53:33;69116.63;;;25.09;100.00
5988;BME280;3021;51.000;6.980;2023-07-13T06:55:59;69052.44;;;24.55;100.00
5988;BME280;3021;51.000;6.980;2023-07-13T06:58:24;68971.38;;;23.86;100.00
5988;BME280;3021;51.000;6.980;2023-07-13T07:00:52;68930.97;;;23.47;100.00
5988;BME280;3021;51.000;6.980;2023-07-13T07:03:18;68904.72;;;23.24;100.00
5988;BME280;3021;51.000;6.980;2023-07-13T07:05:43;68905.88;;;23.25;100.00
5988;BME280;3021;51.000;6.980;2023-07-13T07:08:09;68908.81;;;23.28;100.00
5988;BME280;3021;51.000;6.980;2023-07-13T07:10:35;68942.06;;;23.57;100.00
5988;BME280;3021;51.000;6.980;2023-07-13T07:13:01;68899.59;;;23.22;100.00
5988;BME280;3021;51.000;6.980;2023-07-13T07:15:28;68981.78;;;23.92;100.00
5988;BME280;3021;51.000;6.980;2023-07-13T07:17:53;69048.81;;;24.49;100.00
5988;BME280;3021;51.000;6.980;2023-07-13T07:20:19;69106.13;;;24.99;100.00
5988;BME280;3021;51.000;6.980;2023-07-13T07:22:45;69144.34;;;25.38;100.00
5988;BME280;3021;51.000;6.980;2023-07-13T07:25:11;69044.28;;;24.47;100.00
5988;BME280;3021;51.000;6.980;2023-07-13T07:27:36;69022.19;;;24.30;100.00
5988;BME280;3021;51.000;6.980;2023-07-13T07:30:02;69024.28;;;24.27;100.00
5988;BME280;3021;51.000;6.980;2023-07-13T07:32:29;69032.00;;;24.37;100.00
5988;BME280;3021;51.000;6.980;2023-07-13T07:34:56;69144.81;;;25.36;100.00
5988;BME280;3021;51.000;6.980;2023-07-13T07:37:21;69218.03;;;26.03;100.00
5988;BME280;3021;51.000;6.980;2023-07-13T07:39:47;69193.47;;;25.81;100.00
5988;BME280;3021;51.000;6.980;2023-07-13T07:42:12;69148.31;;;25.39;100.00
5988;BME280;3021;51.000;6.980;2023-07-13T07:44:40;69096.28;;;24.93;100.00
5988;BME280;3021;51.000;6.980;2023-07-13T07:47:05;69077.00;;;24.76;100.00
5988;BME280;3021;51.000;6.980;2023-07-13T07:49:31;69079.34;;;24.78;100.00
5988;BME280;3021;51.000;6.980;2023-07-13T07:51:56;69109.84;;;25.08;100.00
5988;BME280;3021;51.000;6.980;2023-07-13T07:54:21;69125.50;;;25.19;100.00
5988;BME280;3021;51.000;6.980;2023-07-13T07:56:47;69105.19;;;25.04;100.00
5988;BME280;3021;51.000;6.980;2023-07-13T07:59:12;69137.66;;;25.27;100.00
5988;BME280;3021;51.000;6.980;2023-07-13T08:01:37;69179.41;;;25.69;100.00
5988;BME280;3021;51.000;6.980;2023-07-13T08:04:03;69247.75;;;26.27;100.00
5988;BME280;3021;51.000;6.980;2023-07-13T08:06:28;69351.91;;;27.18;100.00
5988;BME280;3021;51.000;6.980;2023-07-13T08:08:54;69427.44;;;27.85;100.00
5988;BME280;3021;51.000;6.980;2023-07-13T08:11:20;69440.91;;;27.97;100.00
5988;BME280;3021;51.000;6.980;2023-07-13T08:13:45;69419.34;;;27.80;100.00
5988;BME280;3021;51.000;6.980;2023-07-13T08:16:11;69350.84;;;27.20;100.00
5988;BME280;3021;51.000;6.980;2023-07-13T08:18:37;69395.22;;;27.56;100.00
5988;BME280;3021;51.000;6.980;2023-07-13T08:21:06;69462.59;;;28.16;100.00
5988;BME280;3021;51.000;6.980;2023-07-13T08:23:31;69558.19;;;29.02;100.00
5988;BME280;3021;51.000;6.980;2023-07-13T08:25:57;69542.28;;;28.86;100.00
5988;BME280;3021;51.000;6.980;2023-07-13T08:28:23;69450.41;;;28.07;100.00
5988;BME280;3021;51.000;6.980;2023-07-13T08:30:49;69418.09;;;27.76;100.00
5988;BME280;3021;51.000;6.980;2023-07-13T08:33:15;69409.41;;;27.71;100.00
5988;BME280;3021;51.000;6.980;2023-07-13T08:35:41;69427.56;;;27.87;100.00
5988;BME280;3021;51.000;6.980;2023-07-13T08:38:06;69425.78;;;27.86;100.00
5988;BME280;3021;51.000;6.980;2023-07-13T08:40:33;69443.84;;;27.99;100.00
5988;BME280;3021;51.000;6.980;2023-07-13T08:43:02;69486.63;;;28.37;100.00
5988;BME280;3021;51.000;6.980;2023-07-13T08:45:51;69531.25;;;28.78;100.00
5988;BME280;3021;51.000;6.980;2023-07-13T08:48:25;69497.25;;;28.49;100.00
5988;BME280;3021;51.000;6.980;2023-07-13T08:53:23;69468.47;;;28.21;100.00
5988;BME280;3021;51.000;6.980;2023-07-13T08:55:55;69473.25;;;28.27;100.00
5988;BME280;3021;51.000;6.980;2023-07-13T08:58:22;69463.19;;;28.16;100.00
5988;BME280;3021;51.000;6.980;2023-07-13T09:03:44;69582.25;;;29.23;100.00
5988;BME280;3021;51.000;6.980;2023-07-13T09:06:12;69664.34;;;29.95;100.00
5988;BME280;3021;51.000;6.980;2023-07-13T09:14:38;69737.66;;;30.60;100.00
5988;BME280;3021;51.000;6.980;2023-07-13T09:17:12;69581.06;;;29.22;100.00
5988;BME280;3021;51.000;6.980;2023-07-13T09:19:39;69656.13;;;29.88;100.00
5988;BME280;3021;51.000;6.980;2023-07-13T09:22:11;69601.59;;;29.40;100.00
5988;BME280;3021;51.000;6.980;2023-07-13T09:24:39;69482.41;;;28.31;100.00
5988;BME280;3021;51.000;6.980;2023-07-13T09:27:19;69561.72;;;29.05;100.00
5988;BME280;3021;51.000;6.980;2023-07-13T09:29:49;69629.72;;;29.65;100.00
5988;BME280;3021;51.000;6.980;2023-07-13T09:32:18;69647.91;;;29.81;100.00
5988;BME280;3021;51.000;6.980;2023-07-13T09:34:50;69721.81;;;30.46;100.00
5988;BME280;3021;51.000;6.980;2023-07-13T09:37:16;69861.50;;;31.68;100.00
5988;BME280;3021;51.000;6.980;2023-07-13T09:39:42;69854.56;;;31.65;100.00
5988;BME280;3021;51.000;6.980;2023-07-13T09:44:55;69965.53;;;32.62;100.00
5988;BME280;3021;51.000;6.980;2023-07-13T09:47:29;69947.94;;;32.47;100.00
5988;BME280;3021;51.000;6.980;2023-07-13T09:50:09;69687.69;;;30.13;100.00
5988;BME280;3021;51.000;6.980;2023-07-13T09:52:46;69864.34;;;31.68;100.00
5988;BME280;3021;51.000;6.980;2023-07-13T09:57:56;69802.22;;;31.16;100.00
5988;BME280;3021;51.000;6.980;2023-07-13T10:00:25;69937.25;;;32.35;100.00
5988;BME280;3021;51.000;6.980;2023-07-13T10:03:03;69999.03;;;32.92;100.00
5988;BME280;3021;51.000;6.980;2023-07-13T10:05:37;70013.72;;;33.04;100.00
5988;BME280;3021;51.000;6.980;2023-07-13T10:08:02;70051.25;;;33.35;100.00
5988;BME280;3021;51.000;6.980;2023-07-13T10:10:28;70124.16;;;33.99;96.00
5988;BME280;3021;51.000;6.980;2023-07-13T10:12:53;70253.53;;;35.12;92.77
5988;BME280;3021;51.000;6.980;2023-07-13T10:15:21;70240.59;;;35.01;92.26
5988;BME280;3021;51.000;6.980;2023-07-13T10:17:48;70356.53;;;36.02;91.40
5988;BME280;3021;51.000;6.980;2023-07-13T10:20:15;70446.16;;;36.83;86.93
5988;BME280;3021;51.000;6.980;2023-07-13T10:23:00;70494.34;;;37.23;84.43
5988;BME280;3021;51.000;6.980;2023-07-13T10:25:31;70588.63;;;38.05;82.23
5988;BME280;3021;51.000;6.980;2023-07-13T10:28:02;70802.69;;;39.92;80.43
5988;BME280;3021;51.000;6.980;2023-07-13T10:30:35;70946.78;;;41.20;75.81
5988;BME280;3021;51.000;6.980;2023-07-13T10:33:03;70723.66;;;39.23;75.56
5988;BME280;3021;51.000;6.980;2023-07-13T10:35:34;70478.53;;;37.11;78.52
5988;BME280;3021;51.000;6.980;2023-07-13T10:38:06;70311.91;;;35.66;82.01
5988;BME280;3021;51.000;6.980;2023-07-13T10:40:48;70314.66;;;35.63;83.62
5988;BME280;3021;51.000;6.980;2023-07-13T10:43:21;70400.69;;;36.41;81.94
5988;BME280;3021;51.000;6.980;2023-07-13T10:45:49;70383.63;;;36.26;80.78
5988;BME280;3021;51.000;6.980;2023-07-13T10:48:15;70316.50;;;35.67;81.01
5988;BME280;3021;51.000;6.980;2023-07-13T10:50:44;70337.72;;;35.86;81.39
5988;BME280;3021;51.000;6.980;2023-07-13T10:53:27;70522.72;;;37.50;80.74
5988;BME280;3021;51.000;6.980;2023-07-13T11:03:32;69736.38;;;30.56;90.63
5988;BME280;3021;51.000;6.980;2023-07-13T11:06:29;69512.38;;;28.59;100.00
5988;BME280;3021;51.000;6.980;2023-07-13T11:08:58;69373.47;;;27.35;100.00
5988;BME280;3021;51.000;6.980;2023-07-13T11:18:47;69191.59;;;25.77;100.00
5988;BME280;3021;51.000;6.980;2023-07-13T11:21:16;69195.09;;;25.80;100.00
5988;BME280;3021;51.000;6.980;2023-07-13T11:23:43;69204.94;;;25.86;100.00
5988;BME280;3021;51.000;6.980;2023-07-13T11:31:41;69259.22;;;26.32;100.00
5988;BME280;3021;51.000;6.980;2023-07-13T11:34:29;69324.41;;;26.94;100.00
5988;BME280;3021;51.000;6.980;2023-07-13T11:36:56;69367.13;;;27.32;100.00
5988;BME280;3021;51.000;6.980;2023-07-13T11:39:30;69360.09;;;27.25;100.00
5988;BME280;3021;51.000;6.980;2023-07-13T11:42:00;69360.09;;;27.25;100.00
5988;BME280;3021;51.000;6.980;2023-07-13T11:44:29;69372.41;;;27.36;100.00
5988;BME280;3021;51.000;6.980;2023-07-13T11:47:00;69354.84;;;27.21;100.00
5988;BME280;3021;51.000;6.980;2023-07-13T11:49:29;69292.19;;;26.66;100.00
5988;BME280;3021;51.000;6.980;2023-07-13T11:51:55;69293.97;;;26.67;100.00
5988;BME280;3021;51.000;6.980;2023-07-13T11:54:26;69317.41;;;26.88;100.00
5988;BME280;3021;51.000;6.980;2023-07-13T11:56:55;69357.28;;;27.25;100.00
5988;BME280;3021;51.000;6.980;2023-07-13T11:59:22;69390.56;;;27.52;100.00
5988;BME280;3021;51.000;6.980;2023-07-13T12:01:51;69418.66;;;27.77;100.00
5988;BME280;3021;51.000;6.980;2023-07-13T12:04:27;69393.47;;;27.55;100.00
5988;BME280;3021;51.000;6.980;2023-07-13T12:07:04;69375.34;;;27.39;100.00
5988;BME280;3021;51.000;6.980;2023-07-13T12:09:30;69406.97;;;27.67;100.00
5988;BME280;3021;51.000;6.980;2023-07-13T12:11:57;69419.84;;;27.78;100.00
5988;BME280;3021;51.000;6.980;2023-07-13T12:14:25;69415.16;;;27.74;100.00
5988;BME280;3021;51.000;6.980;2023-07-13T12:16:52;69426.28;;;27.84;100.00
5988;BME280;3021;51.000;6.980;2023-07-13T12:19:23;69420.53;;;27.81;100.00
5988;BME280;3021;51.000;6.980;2023-07-13T12:21:52;69345.94;;;27.11;100.00
5988;BME280;3021;51.000;6.980;2023-07-13T12:24:19;69337.84;;;27.06;100.00
5988;BME280;3021;51.000;6.980;2023-07-13T12:27:33;69390.09;;;27.54;100.00
5988;BME280;3021;51.000;6.980;2023-07-13T12:29:39;69428.13;;;27.88;100.00
5988;BME280;3021;51.000;6.980;2023-07-13T12:32:08;69474.31;;;28.26;100.00
5988;BME280;3021;51.000;6.980;2023-07-13T12:34:51;69413.97;;;27.73;100.00
5988;BME280;3021;51.000;6.980;2023-07-13T12:37:16;69426.38;;;27.86;100.00
5988;BME280;3021;51.000;6.980;2023-07-13T12:39:49;69437.50;;;27.96;100.00
5988;BME280;3021;51.000;6.980;2023-07-13T12:42:24;69415.03;;;27.71;100.00
5988;BME280;3021;51.000;6.980;2023-07-13T12:45:01;69425.09;;;27.83;100.00
5988;BME280;3021;51.000;6.980;2023-07-13T12:47:28;69440.91;;;27.97;100.00
5988;BME280;3021;51.000;6.980;2023-07-13T12:49:56;69471.88;;;28.21;100.00
5988;BME280;3021;51.000;6.980;2023-07-13T12:52:27;69507.22;;;28.57;100.00
5988;BME280;3021;51.000;6.980;2023-07-13T12:54:58;69488.94;;;28.39;100.00
5988;BME280;3021;51.000;6.980;2023-07-13T12:57:24;69421.09;;;27.82;100.00
5988;BME280;3021;51.000;6.980;2023-07-13T12:59:52;69349.69;;;27.19;100.00
5988;BME280;3021;51.000;6.980;2023-07-13T13:02:32;69359.63;;;27.28;100.00
5988;BME280;3021;51.000;6.980;2023-07-13T13:05:00;69403.34;;;27.61;100.00
5988;BME280;3021;51.000;6.980;2023-07-13T13:07:26;69422.66;;;27.78;100.00
5988;BME280;3021;51.000;6.980;2023-07-13T13:09:52;69440.91;;;27.97;100.00
5988;BME280;3021;51.000;6.980;2023-07-13T13:12:19;69456.84;;;28.13;100.00
5988;BME280;3021;51.000;6.980;2023-07-13T13:14:44;69451.59;;;28.08;100.00
5988;BME280;3021;51.000;6.980;2023-07-13T13:17:19;69466.09;;;28.19;100.00
5988;BME280;3021;51.000;6.980;2023-07-13T13:19:45;69470.22;;;28.22;100.00
5988;BME280;3021;51.000;6.980;2023-07-13T13:22:11;69419.13;;;27.75;100.00
5988;BME280;3021;51.000;6.980;2023-07-13T13:24:37;69356.59;;;27.22;100.00
5988;BME280;3021;51.000;6.980;2023-07-13T13:27:03;69354.94;;;27.23;100.00
5988;BME280;3021;51.000;6.980;2023-07-13T13:29:31;69368.88;;;27.33;100.00
5988;BME280;3021;51.000;6.980;2023-07-13T13:31:57;69360.78;;;27.29;100.00
5988;BME280;3021;51.000;6.980;2023-07-13T13:34:24;69378.84;;;27.42;100.00
5988;BME280;3021;51.000;6.980;2023-07-13T13:36:50;69347.91;;;27.17;100.00
5988;BME280;3021;51.000;6.980;2023-07-13T13:39:25;69309.78;;;26.81;100.00
5988;BME280;3021;51.000;6.980;2023-07-13T13:41:53;69279.34;;;26.54;100.00
5988;BME280;3021;51.000;6.980;2023-07-13T13:44:20;69212.63;;;25.96;100.00
5988;BME280;3021;51.000;6.980;2023-07-13T13:46:48;69192.28;;;25.80;100.00
5988;BME280;3021;51.000;6.980;2023-07-13T13:49:22;69213.81;;;25.97;100.00
5988;BME280;3021;51.000;6.980;2023-07-13T13:51:49;69219.56;;;25.99;100.00
5988;BME280;3021;51.000;6.980;2023-07-13T13:54:16;69196.16;;;25.79;100.00
5988;BME280;3021;51.000;6.980;2023-07-13T13:56:43;69211.94;;;25.93;100.00